Aviation Digital Data Service (ADDS)

Output produced by TAFs form (0618 UTC 29 January 2015)
found at http://aviationweather.gov/adds/tafs/
 
KASE 290535Z 2906/3006 20005KT P6SM SCT040 BKN070 
     TEMPO 2906/2909 BKN040 
     FM291200 20003KT P6SM SCT200 
     FM291800 33004KT P6SM SCT070 BKN200 
     FM300100 18004KT P6SM SCT050 BKN080